sensor_id;sensor_type;location;lat;lon;timestamp;temperature;humidity
51733;DHT22;39139;53.144;6.244;2023-05-02T00:01:13;10.40;99.90
51733;DHT22;39139;53.144;6.244;2023-05-02T00:03:39;10.40;99.90
51733;DHT22;39139;53.144;6.244;2023-05-02T00:06:06;10.40;99.90
51733;DHT22;39139;53.144;6.244;2023-05-02T00:08:32;10.30;99.90
51733;DHT22;39139;53.144;6.244;2023-05-02T00:10:58;10.20;99.90
51733;DHT22;39139;53.144;6.244;2023-05-02T00:13:23;10.20;99.90
51733;DHT22;39139;53.144;6.244;2023-05-02T00:15:49;10.10;99.90
51733;DHT22;39139;53.144;6.244;2023-05-02T00:18:15;10.10;99.90
51733;DHT22;39139;53.144;6.244;2023-05-02T00:20:40;10.10;99.90
51733;DHT22;39139;53.144;6.244;2023-05-02T00:23:06;10.10;99.90
51733;DHT22;39139;53.144;6.244;2023-05-02T00:25:32;10.10;99.90
51733;DHT22;39139;53.144;6.244;2023-05-02T00:27:58;10.10;99.90
51733;DHT22;39139;53.144;6.244;2023-05-02T00:30:23;10.10;99.90
51733;DHT22;39139;53.144;6.244;2023-05-02T00:32:49;10.10;99.90
51733;DHT22;39139;53.144;6.244;2023-05-02T00:35:15;10.10;99.90
51733;DHT22;39139;53.144;6.244;2023-05-02T00:37:40;10.10;99.90
51733;DHT22;39139;53.144;6.244;2023-05-02T00:40:06;10.00;99.90
51733;DHT22;39139;53.144;6.244;2023-05-02T00:42:33;9.90;99.90
51733;DHT22;39139;53.144;6.244;2023-05-02T00:45:01;9.90;99.90
51733;DHT22;39139;53.144;6.244;2023-05-02T00:47:26;9.80;99.90
51733;DHT22;39139;53.144;6.244;2023-05-02T00:49:52;9.80;99.90
51733;DHT22;39139;53.144;6.244;2023-05-02T00:52:18;9.70;99.90
51733;DHT22;39139;53.144;6.244;2023-05-02T00:54:46;9.60;99.90
51733;DHT22;39139;53.144;6.244;2023-05-02T00:57:11;9.60;99.90
51733;DHT22;39139;53.144;6.244;2023-05-02T00:59:37;9.60;99.90
51733;DHT22;39139;53.144;6.244;2023-05-02T01:07:49;9.60;99.90
51733;DHT22;39139;53.144;6.244;2023-05-02T01:13:03;9.80;99.90
51733;DHT22;39139;53.144;6.244;2023-05-02T01:15:32;9.80;99.90
51733;DHT22;39139;53.144;6.244;2023-05-02T01:18:01;9.80;99.90
51733;DHT22;39139;53.144;6.244;2023-05-02T01:20:28;9.80;99.90
51733;DHT22;39139;53.144;6.244;2023-05-02T01:23:03;9.80;99.90
51733;DHT22;39139;53.144;6.244;2023-05-02T01:25:58;9.80;99.90
51733;DHT22;39139;53.144;6.244;2023-05-02T01:30:58;9.60;99.90
51733;DHT22;39139;53.144;6.244;2023-05-02T01:33:27;9.50;99.90
51733;DHT22;39139;53.144;6.244;2023-05-02T01:35:55;9.50;99.90
51733;DHT22;39139;53.144;6.244;2023-05-02T01:38:22;9.30;99.90
51733;DHT22;39139;53.144;6.244;2023-05-02T01:40:50;9.20;99.90
51733;DHT22;39139;53.144;6.244;2023-05-02T01:43:19;9.20;99.90
51733;DHT22;39139;53.144;6.244;2023-05-02T01:45:48;9.20;99.90
51733;DHT22;39139;53.144;6.244;2023-05-02T01:48:15;9.10;99.90
51733;DHT22;39139;53.144;6.244;2023-05-02T01:50:43;9.00;99.90
51733;DHT22;39139;53.144;6.244;2023-05-02T01:53:10;9.00;99.90
51733;DHT22;39139;53.144;6.244;2023-05-02T01:55:38;8.80;99.90
51733;DHT22;39139;53.144;6.244;2023-05-02T01:58:06;8.90;99.90
51733;DHT22;39139;53.144;6.244;2023-05-02T02:00:32;8.80;99.90
51733;DHT22;39139;53.144;6.244;2023-05-02T02:02:59;8.80;99.90
51733;DHT22;39139;53.144;6.244;2023-05-02T02:05:26;8.80;99.90
51733;DHT22;39139;53.144;6.244;2023-05-02T02:07:52;8.80;99.90
51733;DHT22;39139;53.144;6.244;2023-05-02T02:10:18;8.80;99.90
51733;DHT22;39139;53.144;6.244;2023-05-02T02:12:53;8.80;99.90
51733;DHT22;39139;53.144;6.244;2023-05-02T02:15:27;8.80;99.90
51733;DHT22;39139;53.144;6.244;2023-05-02T02:20:33;8.60;99.90
51733;DHT22;39139;53.144;6.244;2023-05-02T02:23:02;8.50;99.90
51733;DHT22;39139;53.144;6.244;2023-05-02T02:25:28;8.60;99.90
51733;DHT22;39139;53.144;6.244;2023-05-02T02:27:55;8.60;99.90
51733;DHT22;39139;53.144;6.244;2023-05-02T02:30:21;8.60;99.90
51733;DHT22;39139;53.144;6.244;2023-05-02T02:32:47;8.50;99.90
51733;DHT22;39139;53.144;6.244;2023-05-02T02:35:13;8.60;99.90
51733;DHT22;39139;53.144;6.244;2023-05-02T02:37:44;8.50;99.90
51733;DHT22;39139;53.144;6.244;2023-05-02T02:48:32;8.30;99.90
51733;DHT22;39139;53.144;6.244;2023-05-02T02:56:40;8.30;99.90
51733;DHT22;39139;53.144;6.244;2023-05-02T02:59:33;8.20;99.90
51733;DHT22;39139;53.144;6.244;2023-05-02T03:04:30;8.00;99.90
51733;DHT22;39139;53.144;6.244;2023-05-02T03:06:57;8.30;99.90
51733;DHT22;39139;53.144;6.244;2023-05-02T03:09:24;8.20;99.90
51733;DHT22;39139;53.144;6.244;2023-05-02T03:11:51;8.10;99.90
51733;DHT22;39139;53.144;6.244;2023-05-02T03:14:17;8.10;99.90
51733;DHT22;39139;53.144;6.244;2023-05-02T03:16:42;8.10;99.90
51733;DHT22;39139;53.144;6.244;2023-05-02T03:19:08;8.00;99.90
51733;DHT22;39139;53.144;6.244;2023-05-02T03:21:34;8.00;99.90
51733;DHT22;39139;53.144;6.244;2023-05-02T03:24:01;8.00;99.90
51733;DHT22;39139;53.144;6.244;2023-05-02T03:26:27;8.00;99.90
51733;DHT22;39139;53.144;6.244;2023-05-02T03:28:54;7.90;99.90
51733;DHT22;39139;53.144;6.244;2023-05-02T03:31:20;7.90;99.90
51733;DHT22;39139;53.144;6.244;2023-05-02T03:33:46;7.90;99.90
51733;DHT22;39139;53.144;6.244;2023-05-02T03:36:12;7.90;99.90
51733;DHT22;39139;53.144;6.244;2023-05-02T03:38:37;7.90;99.90
51733;DHT22;39139;53.144;6.244;2023-05-02T03:41:03;7.90;99.90
51733;DHT22;39139;53.144;6.244;2023-05-02T03:43:29;7.90;99.90
51733;DHT22;39139;53.144;6.244;2023-05-02T03:45:55;8.00;99.90
51733;DHT22;39139;53.144;6.244;2023-05-02T03:48:21;7.80;99.90
51733;DHT22;39139;53.144;6.244;2023-05-02T03:50:47;7.80;99.90
51733;DHT22;39139;53.144;6.244;2023-05-02T03:53:13;7.90;99.90
51733;DHT22;39139;53.144;6.244;2023-05-02T03:55:41;7.90;99.90
51733;DHT22;39139;53.144;6.244;2023-05-02T03:58:09;7.90;99.90
51733;DHT22;39139;53.144;6.244;2023-05-02T04:00:34;7.80;99.90
51733;DHT22;39139;53.144;6.244;2023-05-02T04:03:01;7.90;99.90
51733;DHT22;39139;53.144;6.244;2023-05-02T04:05:27;7.90;99.90
51733;DHT22;39139;53.144;6.244;2023-05-02T04:07:53;7.80;99.90
51733;DHT22;39139;53.144;6.244;2023-05-02T04:10:19;7.80;99.90
51733;DHT22;39139;53.144;6.244;2023-05-02T04:12:45;7.70;99.90
51733;DHT22;39139;53.144;6.244;2023-05-02T04:15:10;7.70;99.90
51733;DHT22;39139;53.144;6.244;2023-05-02T04:17:36;7.70;99.90
51733;DHT22;39139;53.144;6.244;2023-05-02T04:20:02;7.70;99.90
51733;DHT22;39139;53.144;6.244;2023-05-02T04:22:29;7.70;99.90
51733;DHT22;39139;53.144;6.244;2023-05-02T04:24:55;7.60;99.90
51733;DHT22;39139;53.144;6.244;2023-05-02T04:27:21;7.60;99.90
51733;DHT22;39139;53.144;6.244;2023-05-02T04:29:50;7.80;99.90
51733;DHT22;39139;53.144;6.244;2023-05-02T04:32:16;7.50;99.90
51733;DHT22;39139;53.144;6.244;2023-05-02T04:34:41;7.60;99.90
51733;DHT22;39139;53.144;6.244;2023-05-02T04:37:07;7.60;99.90
51733;DHT22;39139;53.144;6.244;2023-05-02T04:39:33;7.60;99.90
51733;DHT22;39139;53.144;6.244;2023-05-02T04:41:59;7.60;99.90
51733;DHT22;39139;53.144;6.244;2023-05-02T04:44:26;7.60;99.90
51733;DHT22;39139;53.144;6.244;2023-05-02T04:46:51;7.60;99.90
51733;DHT22;39139;53.144;6.244;2023-05-02T04:49:17;7.60;99.90
51733;DHT22;39139;53.144;6.244;2023-05-02T04:51:44;7.60;99.90
51733;DHT22;39139;53.144;6.244;2023-05-02T04:54:11;7.60;99.90
51733;DHT22;39139;53.144;6.244;2023-05-02T04:56:37;7.60;99.90
51733;DHT22;39139;53.144;6.244;2023-05-02T04:59:02;7.60;99.90
51733;DHT22;39139;53.144;6.244;2023-05-02T05:01:28;7.70;99.90
51733;DHT22;39139;53.144;6.244;2023-05-02T05:03:54;7.70;99.90
51733;DHT22;39139;53.144;6.244;2023-05-02T05:06:20;7.70;99.90
51733;DHT22;39139;53.144;6.244;2023-05-02T05:08:46;7.70;99.90
51733;DHT22;39139;53.144;6.244;2023-05-02T05:11:12;7.70;99.90
51733;DHT22;39139;53.144;6.244;2023-05-02T05:13:38;7.70;99.90
51733;DHT22;39139;53.144;6.244;2023-05-02T05:16:04;7.70;99.90
51733;DHT22;39139;53.144;6.244;2023-05-02T05:18:30;7.70;99.90
51733;DHT22;39139;53.144;6.244;2023-05-02T05:20:56;7.60;99.90
51733;DHT22;39139;53.144;6.244;2023-05-02T05:23:21;8.70;99.90
51733;DHT22;39139;53.144;6.244;2023-05-02T05:25:47;7.70;99.90
51733;DHT22;39139;53.144;6.244;2023-05-02T05:28:12;7.60;99.90
51733;DHT22;39139;53.144;6.244;2023-05-02T05:30:38;7.70;99.90
51733;DHT22;39139;53.144;6.244;2023-05-02T05:33:04;7.70;99.90
51733;DHT22;39139;53.144;6.244;2023-05-02T05:35:29;7.70;99.90
51733;DHT22;39139;53.144;6.244;2023-05-02T05:37:57;7.70;99.90
51733;DHT22;39139;53.144;6.244;2023-05-02T05:40:22;7.70;99.90
51733;DHT22;39139;53.144;6.244;2023-05-02T05:42:48;7.70;99.90
51733;DHT22;39139;53.144;6.244;2023-05-02T05:45:14;7.70;99.90
51733;DHT22;39139;53.144;6.244;2023-05-02T05:47:41;7.80;99.90
51733;DHT22;39139;53.144;6.244;2023-05-02T05:50:07;7.80;99.90
51733;DHT22;39139;53.144;6.244;2023-05-02T05:52:33;7.80;99.90
51733;DHT22;39139;53.144;6.244;2023-05-02T05:54:59;7.80;99.90
51733;DHT22;39139;53.144;6.244;2023-05-02T05:57:25;7.80;99.90
51733;DHT22;39139;53.144;6.244;2023-05-02T05:59:50;7.90;99.90
51733;DHT22;39139;53.144;6.244;2023-05-02T06:02:16;8.00;99.90
51733;DHT22;39139;53.144;6.244;2023-05-02T06:04:44;7.90;99.90
51733;DHT22;39139;53.144;6.244;2023-05-02T06:07:11;7.90;99.90
51733;DHT22;39139;53.144;6.244;2023-05-02T06:09:36;7.90;99.90
51733;DHT22;39139;53.144;6.244;2023-05-02T06:12:02;7.90;99.90
51733;DHT22;39139;53.144;6.244;2023-05-02T06:14:28;7.90;99.90
51733;DHT22;39139;53.144;6.244;2023-05-02T06:16:53;8.00;99.90
51733;DHT22;39139;53.144;6.244;2023-05-02T06:19:19;7.90;99.90
51733;DHT22;39139;53.144;6.244;2023-05-02T06:21:45;8.00;99.90
51733;DHT22;39139;53.144;6.244;2023-05-02T06:24:10;8.00;99.90
51733;DHT22;39139;53.144;6.244;2023-05-02T06:26:36;8.00;99.90
51733;DHT22;39139;53.144;6.244;2023-05-02T06:29:01;8.10;99.90
51733;DHT22;39139;53.144;6.244;2023-05-02T06:31:28;8.10;99.90
51733;DHT22;39139;53.144;6.244;2023-05-02T06:33:53;8.10;99.90
51733;DHT22;39139;53.144;6.244;2023-05-02T06:36:19;8.20;99.90
51733;DHT22;39139;53.144;6.244;2023-05-02T06:38:45;8.20;99.90
51733;DHT22;39139;53.144;6.244;2023-05-02T06:41:13;8.20;99.90
51733;DHT22;39139;53.144;6.244;2023-05-02T06:43:39;8.20;99.90
51733;DHT22;39139;53.144;6.244;2023-05-02T06:46:06;8.20;99.90
51733;DHT22;39139;53.144;6.244;2023-05-02T06:48:34;8.20;99.90
51733;DHT22;39139;53.144;6.244;2023-05-02T06:50:59;8.30;99.90
51733;DHT22;39139;53.144;6.244;2023-05-02T06:53:25;8.10;99.90
51733;DHT22;39139;53.144;6.244;2023-05-02T06:55:51;8.30;99.90
51733;DHT22;39139;53.144;6.244;2023-05-02T06:58:17;8.30;99.90
51733;DHT22;39139;53.144;6.244;2023-05-02T07:00:43;8.30;99.90
51733;DHT22;39139;53.144;6.244;2023-05-02T07:03:09;8.30;99.90
51733;DHT22;39139;53.144;6.244;2023-05-02T07:05:35;8.40;99.90
51733;DHT22;39139;53.144;6.244;2023-05-02T07:08:01;8.30;99.90
51733;DHT22;39139;53.144;6.244;2023-05-02T07:10:26;8.30;99.90
51733;DHT22;39139;53.144;6.244;2023-05-02T07:12:52;8.30;99.90
51733;DHT22;39139;53.144;6.244;2023-05-02T07:15:18;8.40;99.90
51733;DHT22;39139;53.144;6.244;2023-05-02T07:17:44;8.50;99.90
51733;DHT22;39139;53.144;6.244;2023-05-02T07:20:12;8.70;99.90
51733;DHT22;39139;53.144;6.244;2023-05-02T07:22:37;8.70;99.90
51733;DHT22;39139;53.144;6.244;2023-05-02T07:25:03;8.80;99.90
51733;DHT22;39139;53.144;6.244;2023-05-02T07:27:29;8.80;99.90
51733;DHT22;39139;53.144;6.244;2023-05-02T07:29:55;8.90;99.90
51733;DHT22;39139;53.144;6.244;2023-05-02T07:32:20;8.90;99.90
51733;DHT22;39139;53.144;6.244;2023-05-02T07:34:46;8.80;99.90
51733;DHT22;39139;53.144;6.244;2023-05-02T07:37:12;8.90;99.90
51733;DHT22;39139;53.144;6.244;2023-05-02T07:39:38;9.00;99.90
51733;DHT22;39139;53.144;6.244;2023-05-02T07:42:04;8.90;99.90
51733;DHT22;39139;53.144;6.244;2023-05-02T07:44:31;8.90;99.90
51733;DHT22;39139;53.144;6.244;2023-05-02T07:46:57;8.90;99.90
51733;DHT22;39139;53.144;6.244;2023-05-02T07:49:23;8.90;99.90
51733;DHT22;39139;53.144;6.244;2023-05-02T07:51:49;8.90;99.90
51733;DHT22;39139;53.144;6.244;2023-05-02T07:54:19;9.00;99.90
51733;DHT22;39139;53.144;6.244;2023-05-02T07:56:45;9.10;99.90
51733;DHT22;39139;53.144;6.244;2023-05-02T07:59:11;9.30;99.90
51733;DHT22;39139;53.144;6.244;2023-05-02T08:01:38;9.40;99.90
51733;DHT22;39139;53.144;6.244;2023-05-02T08:04:04;9.50;99.90
51733;DHT22;39139;53.144;6.244;2023-05-02T08:06:30;9.80;99.90
51733;DHT22;39139;53.144;6.244;2023-05-02T08:08:57;9.60;99.90
51733;DHT22;39139;53.144;6.244;2023-05-02T08:11:23;9.70;99.90
51733;DHT22;39139;53.144;6.244;2023-05-02T08:13:51;9.80;99.90
51733;DHT22;39139;53.144;6.244;2023-05-02T08:16:18;9.80;99.90
51733;DHT22;39139;53.144;6.244;2023-05-02T08:18:44;9.70;99.90
51733;DHT22;39139;53.144;6.244;2023-05-02T08:21:10;9.70;99.90
51733;DHT22;39139;53.144;6.244;2023-05-02T08:23:36;9.60;99.90
51733;DHT22;39139;53.144;6.244;2023-05-02T08:26:04;9.70;99.90
51733;DHT22;39139;53.144;6.244;2023-05-02T08:28:30;9.70;99.90
51733;DHT22;39139;53.144;6.244;2023-05-02T08:30:56;9.70;99.90
51733;DHT22;39139;53.144;6.244;2023-05-02T08:33:22;9.70;99.90
51733;DHT22;39139;53.144;6.244;2023-05-02T08:35:47;9.70;99.90
51733;DHT22;39139;53.144;6.244;2023-05-02T08:38:13;9.70;99.90
51733;DHT22;39139;53.144;6.244;2023-05-02T08:40:39;9.90;99.90
51733;DHT22;39139;53.144;6.244;2023-05-02T08:43:05;9.90;99.90
51733;DHT22;39139;53.144;6.244;2023-05-02T08:45:34;10.00;99.90
51733;DHT22;39139;53.144;6.244;2023-05-02T08:48:08;10.50;99.90
51733;DHT22;39139;53.144;6.244;2023-05-02T08:50:38;10.00;99.90
51733;DHT22;39139;53.144;6.244;2023-05-02T08:53:07;10.00;99.90
51733;DHT22;39139;53.144;6.244;2023-05-02T08:55:34;10.10;99.90
51733;DHT22;39139;53.144;6.244;2023-05-02T08:58:02;10.10;99.90
51733;DHT22;39139;53.144;6.244;2023-05-02T09:00:29;10.20;99.90
51733;DHT22;39139;53.144;6.244;2023-05-02T09:05:26;10.40;99.90
51733;DHT22;39139;53.144;6.244;2023-05-02T09:07:53;10.40;99.90
51733;DHT22;39139;53.144;6.244;2023-05-02T09:10:20;10.30;99.90
51733;DHT22;39139;53.144;6.244;2023-05-02T09:12:45;10.40;99.90
51733;DHT22;39139;53.144;6.244;2023-05-02T09:15:15;10.40;99.90
51733;DHT22;39139;53.144;6.244;2023-05-02T09:17:42;10.50;99.90
51733;DHT22;39139;53.144;6.244;2023-05-02T09:20:13;10.50;99.90
51733;DHT22;39139;53.144;6.244;2023-05-02T09:22:48;10.60;99.90
51733;DHT22;39139;53.144;6.244;2023-05-02T09:25:14;10.70;99.90
51733;DHT22;39139;53.144;6.244;2023-05-02T09:27:54;11.00;99.90
51733;DHT22;39139;53.144;6.244;2023-05-02T09:30:21;11.30;99.90
51733;DHT22;39139;53.144;6.244;2023-05-02T09:32:48;11.70;99.90
51733;DHT22;39139;53.144;6.244;2023-05-02T09:35:16;12.10;99.90
51733;DHT22;39139;53.144;6.244;2023-05-02T09:37:52;12.30;99.90
51733;DHT22;39139;53.144;6.244;2023-05-02T09:40:18;12.30;99.90
51733;DHT22;39139;53.144;6.244;2023-05-02T09:42:45;12.00;99.90
51733;DHT22;39139;53.144;6.244;2023-05-02T09:45:24;11.90;99.90
51733;DHT22;39139;53.144;6.244;2023-05-02T09:47:51;11.90;99.90
51733;DHT22;39139;53.144;6.244;2023-05-02T09:50:36;11.70;99.90
51733;DHT22;39139;53.144;6.244;2023-05-02T09:53:04;11.60;99.90
51733;DHT22;39139;53.144;6.244;2023-05-02T09:55:30;11.60;99.90
51733;DHT22;39139;53.144;6.244;2023-05-02T09:57:56;11.70;99.90
51733;DHT22;39139;53.144;6.244;2023-05-02T10:00:22;11.60;99.90
51733;DHT22;39139;53.144;6.244;2023-05-02T10:02:49;11.50;99.90
51733;DHT22;39139;53.144;6.244;2023-05-02T10:05:16;11.70;99.90
51733;DHT22;39139;53.144;6.244;2023-05-02T10:07:43;11.80;99.90
51733;DHT22;39139;53.144;6.244;2023-05-02T10:10:16;11.80;99.90
51733;DHT22;39139;53.144;6.244;2023-05-02T10:12:42;11.90;99.90
51733;DHT22;39139;53.144;6.244;2023-05-02T10:15:09;12.20;99.90
51733;DHT22;39139;53.144;6.244;2023-05-02T10:17:45;12.60;99.90
51733;DHT22;39139;53.144;6.244;2023-05-02T10:20:16;13.00;99.90
51733;DHT22;39139;53.144;6.244;2023-05-02T10:22:44;13.10;99.90
51733;DHT22;39139;53.144;6.244;2023-05-02T10:25:11;13.10;99.90
51733;DHT22;39139;53.144;6.244;2023-05-02T10:27:37;13.20;99.90
51733;DHT22;39139;53.144;6.244;2023-05-02T10:30:04;13.60;99.90
51733;DHT22;39139;53.144;6.244;2023-05-02T10:32:32;14.00;99.90
51733;DHT22;39139;53.144;6.244;2023-05-02T10:35:03;14.30;99.90
51733;DHT22;39139;53.144;6.244;2023-05-02T10:37:30;14.40;99.90
51733;DHT22;39139;53.144;6.244;2023-05-02T10:39:58;14.20;99.90
51733;DHT22;39139;53.144;6.244;2023-05-02T10:42:25;13.80;99.90
51733;DHT22;39139;53.144;6.244;2023-05-02T10:44:51;13.40;99.90
51733;DHT22;39139;53.144;6.244;2023-05-02T10:47:26;13.00;99.90
51733;DHT22;39139;53.144;6.244;2023-05-02T10:50:00;12.70;99.90
51733;DHT22;39139;53.144;6.244;2023-05-02T10:52:34;12.40;99.90
51733;DHT22;39139;53.144;6.244;2023-05-02T10:55:17;12.30;99.90
51733;DHT22;39139;53.144;6.244;2023-05-02T11:00:29;12.10;99.90
51733;DHT22;39139;53.144;6.244;2023-05-02T11:02:55;12.40;99.90
51733;DHT22;39139;53.144;6.244;2023-05-02T11:05:22;12.70;99.90
51733;DHT22;39139;53.144;6.244;2023-05-02T11:07:49;13.00;99.90
51733;DHT22;39139;53.144;6.244;2023-05-02T11:12:52;13.10;99.90
51733;DHT22;39139;53.144;6.244;2023-05-02T11:18:05;12.80;99.90
51733;DHT22;39139;53.144;6.244;2023-05-02T11:20:40;12.80;99.90
51733;DHT22;39139;53.144;6.244;2023-05-02T11:25:47;12.50;99.90
51733;DHT22;39139;53.144;6.244;2023-05-02T11:31:00;12.40;99.90
51733;DHT22;39139;53.144;6.244;2023-05-02T11:33:28;11.90;99.90
51733;DHT22;39139;53.144;6.244;2023-05-02T11:35:54;12.70;99.90
51733;DHT22;39139;53.144;6.244;2023-05-02T11:38:21;12.80;99.90
51733;DHT22;39139;53.144;6.244;2023-05-02T11:40:52;12.70;99.90
51733;DHT22;39139;53.144;6.244;2023-05-02T11:43:19;12.50;99.90
51733;DHT22;39139;53.144;6.244;2023-05-02T11:45:46;12.40;99.90
51733;DHT22;39139;53.144;6.244;2023-05-02T11:48:15;12.30;99.90
51733;DHT22;39139;53.144;6.244;2023-05-02T11:53:10;12.10;99.90
51733;DHT22;39139;53.144;6.244;2023-05-02T11:55:37;12.10;99.90
51733;DHT22;39139;53.144;6.244;2023-05-02T11:58:02;12.20;99.90
51733;DHT22;39139;53.144;6.244;2023-05-02T12:00:28;12.30;99.90
51733;DHT22;39139;53.144;6.244;2023-05-02T12:02:54;12.10;99.90
51733;DHT22;39139;53.144;6.244;2023-05-02T12:05:27;12.30;99.90
51733;DHT22;39139;53.144;6.244;2023-05-02T12:07:55;12.20;99.90
51733;DHT22;39139;53.144;6.244;2023-05-02T12:10:21;12.30;99.90
51733;DHT22;39139;53.144;6.244;2023-05-02T12:12:47;12.30;99.90
51733;DHT22;39139;53.144;6.244;2023-05-02T12:15:13;12.40;99.90
51733;DHT22;39139;53.144;6.244;2023-05-02T12:17:45;12.60;99.90
51733;DHT22;39139;53.144;6.244;2023-05-02T12:20:13;12.80;99.90
51733;DHT22;39139;53.144;6.244;2023-05-02T12:22:39;13.10;99.90
51733;DHT22;39139;53.144;6.244;2023-05-02T12:25:05;13.20;99.90
51733;DHT22;39139;53.144;6.244;2023-05-02T12:27:31;13.10;99.90
51733;DHT22;39139;53.144;6.244;2023-05-02T12:30:00;12.80;99.90
51733;DHT22;39139;53.144;6.244;2023-05-02T12:32:27;12.80;99.90
51733;DHT22;39139;53.144;6.244;2023-05-02T12:34:57;12.80;99.90
51733;DHT22;39139;53.144;6.244;2023-05-02T12:37:25;12.70;99.90
51733;DHT22;39139;53.144;6.244;2023-05-02T12:39:51;12.70;99.90
51733;DHT22;39139;53.144;6.244;2023-05-02T12:42:19;12.70;99.90
51733;DHT22;39139;53.144;6.244;2023-05-02T12:44:46;12.80;99.90
51733;DHT22;39139;53.144;6.244;2023-05-02T12:47:14;12.90;99.90
51733;DHT22;39139;53.144;6.244;2023-05-02T12:52:20;13.00;99.90
51733;DHT22;39139;53.144;6.244;2023-05-02T12:54:46;13.30;99.90
51733;DHT22;39139;53.144;6.244;2023-05-02T12:57:24;13.40;99.90
51733;DHT22;39139;53.144;6.244;2023-05-02T12:59:53;13.40;99.90
51733;DHT22;39139;53.144;6.244;2023-05-02T13:02:20;13.40;99.90
51733;DHT22;39139;53.144;6.244;2023-05-02T13:04:46;13.20;99.90
51733;DHT22;39139;53.144;6.244;2023-05-02T13:07:11;13.10;99.90
51733;DHT22;39139;53.144;6.244;2023-05-02T13:09:37;13.00;99.90
51733;DHT22;39139;53.144;6.244;2023-05-02T13:12:03;12.70;99.90
51733;DHT22;39139;53.144;6.244;2023-05-02T13:14:29;12.60;99.90
51733;DHT22;39139;53.144;6.244;2023-05-02T13:16:55;12.40;99.90
51733;DHT22;39139;53.144;6.244;2023-05-02T13:19:21;12.20;99.90
51733;DHT22;39139;53.144;6.244;2023-05-02T13:21:47;12.20;99.90
51733;DHT22;39139;53.144;6.244;2023-05-02T13:24:13;12.50;99.90
51733;DHT22;39139;53.144;6.244;2023-05-02T13:26:39;12.10;99.90
51733;DHT22;39139;53.144;6.244;2023-05-02T13:29:08;12.00;99.90
51733;DHT22;39139;53.144;6.244;2023-05-02T13:31:36;12.10;99.90
51733;DHT22;39139;53.144;6.244;2023-05-02T13:34:03;12.00;99.90
51733;DHT22;39139;53.144;6.244;2023-05-02T13:36:29;12.10;99.90
51733;DHT22;39139;53.144;6.244;2023-05-02T13:38:54;12.20;99.90
51733;DHT22;39139;53.144;6.244;2023-05-02T13:41:20;12.20;99.90
51733;DHT22;39139;53.144;6.244;2023-05-02T13:43:46;12.40;99.90
51733;DHT22;39139;53.144;6.244;2023-05-02T13:46:11;12.60;99.90
51733;DHT22;39139;53.144;6.244;2023-05-02T13:48:37;12.50;99.90
51733;DHT22;39139;53.144;6.244;2023-05-02T13:51:03;12.50;99.90
51733;DHT22;39139;53.144;6.244;2023-05-02T13:53:28;12.70;99.90
51733;DHT22;39139;53.144;6.244;2023-05-02T13:55:54;12.70;99.90
51733;DHT22;39139;53.144;6.244;2023-05-02T13:58:20;12.70;99.90
51733;DHT22;39139;53.144;6.244;2023-05-02T14:00:46;13.00;99.90
51733;DHT22;39139;53.144;6.244;2023-05-02T14:03:12;13.10;99.90
51733;DHT22;39139;53.144;6.244;2023-05-02T14:05:38;13.10;99.90
51733;DHT22;39139;53.144;6.244;2023-05-02T14:08:09;13.10;99.90
51733;DHT22;39139;53.144;6.244;2023-05-02T14:10:35;13.00;99.90
51733;DHT22;39139;53.144;6.244;2023-05-02T14:13:03;13.00;99.90
51733;DHT22;39139;53.144;6.244;2023-05-02T14:15:29;12.80;99.90
51733;DHT22;39139;53.144;6.244;2023-05-02T14:17:56;12.70;99.90
51733;DHT22;39139;53.144;6.244;2023-05-02T14:20:21;12.70;99.90
51733;DHT22;39139;53.144;6.244;2023-05-02T14:22:48;12.80;99.90
51733;DHT22;39139;53.144;6.244;2023-05-02T14:25:14;12.80;99.90
51733;DHT22;39139;53.144;6.244;2023-05-02T14:27:40;12.80;99.90
51733;DHT22;39139;53.144;6.244;2023-05-02T14:30:07;12.60;99.90
51733;DHT22;39139;53.144;6.244;2023-05-02T14:32:33;12.50;99.90
51733;DHT22;39139;53.144;6.244;2023-05-02T14:34:59;12.40;99.90
51733;DHT22;39139;53.144;6.244;2023-05-02T14:37:25;12.20;99.90
51733;DHT22;39139;53.144;6.244;2023-05-02T14:39:51;12.40;99.90
51733;DHT22;39139;53.144;6.244;2023-05-02T14:42:21;12.30;99.90
51733;DHT22;39139;53.144;6.244;2023-05-02T14:44:47;12.20;99.90
51733;DHT22;39139;53.144;6.244;2023-05-02T14:47:12;12.40;99.90
51733;DHT22;39139;53.144;6.244;2023-05-02T14:49:38;12.40;99.90
51733;DHT22;39139;53.144;6.244;2023-05-02T14:52:03;12.40;99.90
51733;DHT22;39139;53.144;6.244;2023-05-02T14:54:29;12.40;99.90
51733;DHT22;39139;53.144;6.244;2023-05-02T14:56:55;12.40;99.90
51733;DHT22;39139;53.144;6.244;2023-05-02T14:59:21;12.40;99.90
51733;DHT22;39139;53.144;6.244;2023-05-02T15:01:47;12.40;99.90
51733;DHT22;39139;53.144;6.244;2023-05-02T15:04:13;12.40;99.90
51733;DHT22;39139;53.144;6.244;2023-05-02T15:06:38;12.60;99.90
51733;DHT22;39139;53.144;6.244;2023-05-02T15:09:04;12.60;99.90
51733;DHT22;39139;53.144;6.244;2023-05-02T15:11:30;12.60;99.90
51733;DHT22;39139;53.144;6.244;2023-05-02T15:13:56;12.40;99.90
51733;DHT22;39139;53.144;6.244;2023-05-02T15:16:22;12.40;99.90
51733;DHT22;39139;53.144;6.244;2023-05-02T15:18:48;12.20;99.90
51733;DHT22;39139;53.144;6.244;2023-05-02T15:21:13;12.10;99.90
51733;DHT22;39139;53.144;6.244;2023-05-02T15:23:39;12.00;99.90
51733;DHT22;39139;53.144;6.244;2023-05-02T15:26:05;11.90;99.90
51733;DHT22;39139;53.144;6.244;2023-05-02T15:28:30;11.70;99.90
51733;DHT22;39139;53.144;6.244;2023-05-02T15:30:56;11.60;99.90
51733;DHT22;39139;53.144;6.244;2023-05-02T15:33:22;11.60;99.90
51733;DHT22;39139;53.144;6.244;2023-05-02T15:35:57;11.40;99.90
51733;DHT22;39139;53.144;6.244;2023-05-02T15:38:23;11.50;99.90
51733;DHT22;39139;53.144;6.244;2023-05-02T15:40:59;11.50;99.90
51733;DHT22;39139;53.144;6.244;2023-05-02T15:43:25;11.50;99.90
51733;DHT22;39139;53.144;6.244;2023-05-02T15:45:52;11.60;99.90
51733;DHT22;39139;53.144;6.244;2023-05-02T15:48:19;11.50;99.90
51733;DHT22;39139;53.144;6.244;2023-05-02T15:50:45;11.60;99.90
51733;DHT22;39139;53.144;6.244;2023-05-02T15:53:12;11.50;99.90
51733;DHT22;39139;53.144;6.244;2023-05-02T15:55:38;11.60;99.90
51733;DHT22;39139;53.144;6.244;2023-05-02T15:58:04;11.60;99.90
51733;DHT22;39139;53.144;6.244;2023-05-02T16:00:29;11.60;99.90
51733;DHT22;39139;53.144;6.244;2023-05-02T16:02:55;11.70;99.90
51733;DHT22;39139;53.144;6.244;2023-05-02T16:05:20;11.70;99.90
51733;DHT22;39139;53.144;6.244;2023-05-02T16:07:46;11.70;99.90
51733;DHT22;39139;53.144;6.244;2023-05-02T16:10:12;11.80;99.90
51733;DHT22;39139;53.144;6.244;2023-05-02T16:12:38;11.90;99.90
51733;DHT22;39139;53.144;6.244;2023-05-02T16:15:04;11.80;99.90
51733;DHT22;39139;53.144;6.244;2023-05-02T16:17:30;11.90;99.90
51733;DHT22;39139;53.144;6.244;2023-05-02T16:19:56;12.00;99.90
51733;DHT22;39139;53.144;6.244;2023-05-02T16:22:22;11.90;99.90
51733;DHT22;39139;53.144;6.244;2023-05-02T16:24:48;11.70;99.90
51733;DHT22;39139;53.144;6.244;2023-05-02T16:27:14;11.70;99.90